sensor_id;sensor_type;location;lat;lon;timestamp;pressure;altitude;pressure_sealevel;temperature;humidity
37694;BME280;23531;50.122;8.644;2023-04-10T00:01:08;101242.00;;;10.61;nan
37694;BME280;23531;50.122;8.644;2023-04-10T00:03:09;101252.97;;;10.60;nan
37694;BME280;23531;50.122;8.644;2023-04-10T00:05:11;101254.28;;;10.49;nan
37694;BME280;23531;50.122;8.644;2023-04-10T00:07:12;101262.53;;;10.47;nan
37694;BME280;23531;50.122;8.644;2023-04-10T00:09:14;101256.34;;;10.47;nan
37694;BME280;23531;50.122;8.644;2023-04-10T00:11:16;101254.78;;;10.38;nan
37694;BME280;23531;50.122;8.644;2023-04-10T00:13:17;101259.22;;;10.45;nan
37694;BME280;23531;50.122;8.644;2023-04-10T00:15:19;101263.56;;;10.46;nan
37694;BME280;23531;50.122;8.644;2023-04-10T00:17:21;101263.81;;;10.51;nan
37694;BME280;23531;50.122;8.644;2023-04-10T00:19:22;101264.66;;;10.52;nan
37694;BME280;23531;50.122;8.644;2023-04-10T00:21:23;101267.28;;;10.31;nan
37694;BME280;23531;50.122;8.644;2023-04-10T00:23:25;101262.00;;;10.37;nan
37694;BME280;23531;50.122;8.644;2023-04-10T00:25:26;101269.88;;;10.39;nan
37694;BME280;23531;50.122;8.644;2023-04-10T00:27:27;101265.59;;;10.44;nan
37694;BME280;23531;50.122;8.644;2023-04-10T00:29:29;101260.69;;;10.48;nan
37694;BME280;23531;50.122;8.644;2023-04-10T00:31:31;101265.88;;;10.49;nan
37694;BME280;23531;50.122;8.644;2023-04-10T00:33:32;101261.31;;;10.50;nan
37694;BME280;23531;50.122;8.644;2023-04-10T00:35:34;101257.53;;;10.44;nan
37694;BME280;23531;50.122;8.644;2023-04-10T00:37:35;101267.38;;;10.37;nan
37694;BME280;23531;50.122;8.644;2023-04-10T00:39:36;101260.19;;;10.23;nan
37694;BME280;23531;50.122;8.644;2023-04-10T00:41:38;101261.66;;;10.26;nan
37694;BME280;23531;50.122;8.644;2023-04-10T00:43:39;101254.44;;;10.26;nan
37694;BME280;23531;50.122;8.644;2023-04-10T00:45:40;101259.81;;;10.26;nan
37694;BME280;23531;50.122;8.644;2023-04-10T00:47:42;101263.03;;;10.22;nan
37694;BME280;23531;50.122;8.644;2023-04-10T00:49:43;101263.03;;;10.22;nan
37694;BME280;23531;50.122;8.644;2023-04-10T00:51:45;101262.47;;;10.11;nan
37694;BME280;23531;50.122;8.644;2023-04-10T00:53:46;101263.00;;;10.07;nan
37694;BME280;23531;50.122;8.644;2023-04-10T00:55:50;101253.28;;;10.06;nan
37694;BME280;23531;50.122;8.644;2023-04-10T00:57:51;101252.84;;;10.02;nan
37694;BME280;23531;50.122;8.644;2023-04-10T00:59:55;101257.28;;;9.95;nan
37694;BME280;23531;50.122;8.644;2023-04-10T01:01:56;101251.16;;;9.87;nan
37694;BME280;23531;50.122;8.644;2023-04-10T01:03:59;101260.22;;;9.71;nan
37694;BME280;23531;50.122;8.644;2023-04-10T01:06:02;101255.69;;;9.71;nan
37694;BME280;23531;50.122;8.644;2023-04-10T01:08:07;101256.06;;;9.68;nan
37694;BME280;23531;50.122;8.644;2023-04-10T01:10:13;101268.94;;;9.58;nan
37694;BME280;23531;50.122;8.644;2023-04-10T01:12:21;101278.44;;;9.46;nan
37694;BME280;23531;50.122;8.644;2023-04-10T01:14:26;101269.09;;;9.42;nan
37694;BME280;23531;50.122;8.644;2023-04-10T01:16:33;101270.00;;;9.34;nan
37694;BME280;23531;50.122;8.644;2023-04-10T01:18:37;101267.41;;;9.41;nan
37694;BME280;23531;50.122;8.644;2023-04-10T01:20:42;101270.56;;;9.44;nan
37694;BME280;23531;50.122;8.644;2023-04-10T01:22:48;101259.22;;;9.57;nan
37694;BME280;23531;50.122;8.644;2023-04-10T01:24:55;101267.09;;;9.59;nan
37694;BME280;23531;50.122;8.644;2023-04-10T01:27:04;101266.88;;;9.60;nan
37694;BME280;23531;50.122;8.644;2023-04-10T01:29:11;101270.50;;;9.53;nan
37694;BME280;23531;50.122;8.644;2023-04-10T01:31:15;101270.22;;;9.48;nan
37694;BME280;23531;50.122;8.644;2023-04-10T01:33:20;101274.84;;;9.54;nan
37694;BME280;23531;50.122;8.644;2023-04-10T01:35:22;101273.09;;;9.46;nan
37694;BME280;23531;50.122;8.644;2023-04-10T01:37:24;101265.47;;;9.35;nan
37694;BME280;23531;50.122;8.644;2023-04-10T01:39:27;101272.50;;;9.36;nan
37694;BME280;23531;50.122;8.644;2023-04-10T01:41:33;101261.38;;;9.39;nan
37694;BME280;23531;50.122;8.644;2023-04-10T01:43:35;101264.50;;;9.28;nan
37694;BME280;23531;50.122;8.644;2023-04-10T01:45:39;101256.41;;;9.36;nan
37694;BME280;23531;50.122;8.644;2023-04-10T01:47:42;101255.25;;;9.30;nan
37694;BME280;23531;50.122;8.644;2023-04-10T01:49:44;101254.59;;;9.28;nan
37694;BME280;23531;50.122;8.644;2023-04-10T01:51:46;101260.44;;;9.32;nan
37694;BME280;23531;50.122;8.644;2023-04-10T01:53:48;101254.91;;;9.33;nan
37694;BME280;23531;50.122;8.644;2023-04-10T01:55:50;101252.41;;;9.32;nan
37694;BME280;23531;50.122;8.644;2023-04-10T01:57:52;101244.03;;;9.27;nan
37694;BME280;23531;50.122;8.644;2023-04-10T01:59:54;101251.25;;;8.66;nan
37694;BME280;23531;50.122;8.644;2023-04-10T02:01:57;101241.34;;;8.35;nan
37694;BME280;23531;50.122;8.644;2023-04-10T02:03:59;101246.47;;;8.06;nan
37694;BME280;23531;50.122;8.644;2023-04-10T02:06:02;101245.25;;;8.17;nan
37694;BME280;23531;50.122;8.644;2023-04-10T02:08:07;101244.03;;;8.35;nan
37694;BME280;23531;50.122;8.644;2023-04-10T02:10:12;101241.47;;;8.73;nan
37694;BME280;23531;50.122;8.644;2023-04-10T02:12:14;101236.28;;;8.94;nan
37694;BME280;23531;50.122;8.644;2023-04-10T02:14:17;101234.19;;;9.04;nan
37694;BME280;23531;50.122;8.644;2023-04-10T02:16:20;101226.25;;;9.11;nan
37694;BME280;23531;50.122;8.644;2023-04-10T02:18:23;101221.16;;;9.16;nan
37694;BME280;23531;50.122;8.644;2023-04-10T02:20:25;101227.69;;;8.99;nan
37694;BME280;23531;50.122;8.644;2023-04-10T02:22:27;101219.47;;;8.78;nan
37694;BME280;23531;50.122;8.644;2023-04-10T02:24:28;101224.69;;;8.48;nan
37694;BME280;23531;50.122;8.644;2023-04-10T02:26:30;101223.25;;;8.29;nan
37694;BME280;23531;50.122;8.644;2023-04-10T02:28:31;101219.97;;;8.19;nan
37694;BME280;23531;50.122;8.644;2023-04-10T02:30:32;101226.56;;;8.09;nan
37694;BME280;23531;50.122;8.644;2023-04-10T02:32:34;101219.69;;;8.06;nan
37694;BME280;23531;50.122;8.644;2023-04-10T02:34:37;101223.56;;;8.03;nan
37694;BME280;23531;50.122;8.644;2023-04-10T02:36:38;101221.59;;;7.97;nan
37694;BME280;23531;50.122;8.644;2023-04-10T02:38:39;101226.75;;;7.99;nan
37694;BME280;23531;50.122;8.644;2023-04-10T02:40:40;101222.53;;;8.05;nan
37694;BME280;23531;50.122;8.644;2023-04-10T02:42:42;101224.75;;;7.93;nan
37694;BME280;23531;50.122;8.644;2023-04-10T02:44:43;101223.25;;;7.98;nan
37694;BME280;23531;50.122;8.644;2023-04-10T02:46:44;101225.59;;;7.93;nan
37694;BME280;23531;50.122;8.644;2023-04-10T02:48:46;101224.09;;;7.99;nan
37694;BME280;23531;50.122;8.644;2023-04-10T02:50:48;101230.44;;;7.98;nan
37694;BME280;23531;50.122;8.644;2023-04-10T02:52:50;101227.22;;;8.02;nan
37694;BME280;23531;50.122;8.644;2023-04-10T02:54:51;101229.28;;;8.40;nan
37694;BME280;23531;50.122;8.644;2023-04-10T02:56:52;101224.84;;;8.55;nan
37694;BME280;23531;50.122;8.644;2023-04-10T02:58:54;101224.47;;;8.58;nan
37694;BME280;23531;50.122;8.644;2023-04-10T03:00:55;101219.91;;;8.66;nan
37694;BME280;23531;50.122;8.644;2023-04-10T03:02:56;101219.94;;;8.81;nan
37694;BME280;23531;50.122;8.644;2023-04-10T03:04:59;101211.31;;;8.71;nan
37694;BME280;23531;50.122;8.644;2023-04-10T03:07:02;101211.25;;;8.79;nan
37694;BME280;23531;50.122;8.644;2023-04-10T03:09:03;101212.56;;;8.83;nan
37694;BME280;23531;50.122;8.644;2023-04-10T03:11:05;101206.19;;;8.84;nan
37694;BME280;23531;50.122;8.644;2023-04-10T03:13:07;101206.91;;;8.78;nan
37694;BME280;23531;50.122;8.644;2023-04-10T03:15:09;101202.66;;;8.84;nan
37694;BME280;23531;50.122;8.644;2023-04-10T03:17:10;101207.84;;;8.85;nan
37694;BME280;23531;50.122;8.644;2023-04-10T03:19:12;101203.38;;;8.55;nan
37694;BME280;23531;50.122;8.644;2023-04-10T03:21:13;101209.94;;;8.13;nan
37694;BME280;23531;50.122;8.644;2023-04-10T03:23:16;101201.34;;;7.95;nan
37694;BME280;23531;50.122;8.644;2023-04-10T03:25:17;101204.22;;;7.85;nan
37694;BME280;23531;50.122;8.644;2023-04-10T03:27:18;101193.06;;;7.74;nan
37694;BME280;23531;50.122;8.644;2023-04-10T03:29:20;101201.59;;;7.69;nan
37694;BME280;23531;50.122;8.644;2023-04-10T03:31:22;101198.91;;;7.69;nan
37694;BME280;23531;50.122;8.644;2023-04-10T03:33:23;101197.56;;;7.73;nan
37694;BME280;23531;50.122;8.644;2023-04-10T03:35:24;101187.38;;;7.69;nan
37694;BME280;23531;50.122;8.644;2023-04-10T03:37:25;101194.75;;;7.58;nan
37694;BME280;23531;50.122;8.644;2023-04-10T03:39:28;101190.63;;;7.56;nan
37694;BME280;23531;50.122;8.644;2023-04-10T03:41:30;101190.44;;;7.49;nan
37694;BME280;23531;50.122;8.644;2023-04-10T03:43:31;101192.97;;;7.43;nan
37694;BME280;23531;50.122;8.644;2023-04-10T03:45:33;101192.16;;;7.42;nan
37694;BME280;23531;50.122;8.644;2023-04-10T03:47:34;101198.34;;;7.43;nan
37694;BME280;23531;50.122;8.644;2023-04-10T03:49:35;101185.13;;;7.41;nan
37694;BME280;23531;50.122;8.644;2023-04-10T03:51:36;101204.88;;;7.32;nan
37694;BME280;23531;50.122;8.644;2023-04-10T03:53:38;101185.47;;;7.30;nan
37694;BME280;23531;50.122;8.644;2023-04-10T03:55:40;101191.84;;;7.29;nan
37694;BME280;23531;50.122;8.644;2023-04-10T03:57:41;101190.84;;;7.22;nan
37694;BME280;23531;50.122;8.644;2023-04-10T03:59:43;101181.47;;;7.18;nan
37694;BME280;23531;50.122;8.644;2023-04-10T04:01:44;101188.19;;;7.22;nan
37694;BME280;23531;50.122;8.644;2023-04-10T04:03:45;101182.16;;;7.20;nan
37694;BME280;23531;50.122;8.644;2023-04-10T04:05:46;101186.16;;;7.16;nan
37694;BME280;23531;50.122;8.644;2023-04-10T04:07:48;101188.84;;;7.16;nan
37694;BME280;23531;50.122;8.644;2023-04-10T04:09:49;101185.50;;;7.06;nan
37694;BME280;23531;50.122;8.644;2023-04-10T04:11:52;101193.19;;;7.09;nan
37694;BME280;23531;50.122;8.644;2023-04-10T04:13:53;101182.16;;;7.12;nan
37694;BME280;23531;50.122;8.644;2023-04-10T04:15:54;101194.03;;;7.09;nan
37694;BME280;23531;50.122;8.644;2023-04-10T04:17:55;101187.34;;;7.05;nan
37694;BME280;23531;50.122;8.644;2023-04-10T04:19:57;101185.16;;;7.01;nan
37694;BME280;23531;50.122;8.644;2023-04-10T04:21:58;101183.34;;;6.93;nan
37694;BME280;23531;50.122;8.644;2023-04-10T04:24:00;101183.84;;;6.97;nan
37694;BME280;23531;50.122;8.644;2023-04-10T04:26:01;101182.19;;;6.96;nan
37694;BME280;23531;50.122;8.644;2023-04-10T04:28:04;101192.72;;;6.97;nan
37694;BME280;23531;50.122;8.644;2023-04-10T04:30:06;101193.19;;;7.01;nan
37694;BME280;23531;50.122;8.644;2023-04-10T04:32:07;101191.34;;;7.01;nan
37694;BME280;23531;50.122;8.644;2023-04-10T04:34:09;101195.53;;;7.04;nan
37694;BME280;23531;50.122;8.644;2023-04-10T04:36:10;101196.06;;;6.99;nan
37694;BME280;23531;50.122;8.644;2023-04-10T04:38:11;101196.53;;;6.95;nan
37694;BME280;23531;50.122;8.644;2023-04-10T04:40:12;101197.38;;;6.95;nan
37694;BME280;23531;50.122;8.644;2023-04-10T04:42:14;101199.91;;;6.97;nan
37694;BME280;23531;50.122;8.644;2023-04-10T04:44:16;101187.19;;;6.99;nan
37694;BME280;23531;50.122;8.644;2023-04-10T04:46:18;101199.91;;;6.97;nan
37694;BME280;23531;50.122;8.644;2023-04-10T04:48:19;101197.22;;;6.97;nan
37694;BME280;23531;50.122;8.644;2023-04-10T04:50:20;101199.91;;;6.97;nan
37694;BME280;23531;50.122;8.644;2023-04-10T04:52:22;101199.56;;;7.00;nan
37694;BME280;23531;50.122;8.644;2023-04-10T04:54:24;101195.22;;;6.99;nan
37694;BME280;23531;50.122;8.644;2023-04-10T04:56:25;101201.22;;;7.01;nan
37694;BME280;23531;50.122;8.644;2023-04-10T04:58:26;101198.53;;;7.01;nan
37694;BME280;23531;50.122;8.644;2023-04-10T05:00:29;101199.72;;;6.98;nan
37694;BME280;23531;50.122;8.644;2023-04-10T05:02:30;101202.06;;;6.93;nan
37694;BME280;23531;50.122;8.644;2023-04-10T05:04:31;101208.09;;;6.87;nan
37694;BME280;23531;50.122;8.644;2023-04-10T05:06:33;101195.56;;;6.87;nan
37694;BME280;23531;50.122;8.644;2023-04-10T05:08:34;101198.03;;;6.89;nan
37694;BME280;23531;50.122;8.644;2023-04-10T05:10:35;101197.88;;;6.90;nan
37694;BME280;23531;50.122;8.644;2023-04-10T05:12:37;101204.75;;;6.77;nan
37694;BME280;23531;50.122;8.644;2023-04-10T05:14:40;101203.19;;;6.66;nan
37694;BME280;23531;50.122;8.644;2023-04-10T05:16:43;101197.84;;;6.66;nan
37694;BME280;23531;50.122;8.644;2023-04-10T05:18:44;101202.41;;;6.66;nan
37694;BME280;23531;50.122;8.644;2023-04-10T05:20:46;101202.72;;;6.63;nan
37694;BME280;23531;50.122;8.644;2023-04-10T05:22:47;101201.88;;;6.70;nan
37694;BME280;23531;50.122;8.644;2023-04-10T05:24:48;101205.53;;;6.77;nan
37694;BME280;23531;50.122;8.644;2023-04-10T05:26:50;101203.91;;;6.76;nan
37694;BME280;23531;50.122;8.644;2023-04-10T05:28:51;101207.56;;;6.75;nan
37694;BME280;23531;50.122;8.644;2023-04-10T05:30:52;101206.38;;;6.70;nan
37694;BME280;23531;50.122;8.644;2023-04-10T05:32:55;101204.38;;;6.72;nan
37694;BME280;23531;50.122;8.644;2023-04-10T05:34:56;101219.25;;;6.82;nan
37694;BME280;23531;50.122;8.644;2023-04-10T05:36:57;101218.44;;;6.82;nan
37694;BME280;23531;50.122;8.644;2023-04-10T05:38:58;101217.44;;;6.83;nan
37694;BME280;23531;50.122;8.644;2023-04-10T05:40:59;101228.28;;;6.81;nan
37694;BME280;23531;50.122;8.644;2023-04-10T05:43:01;101220.44;;;6.72;nan
37694;BME280;23531;50.122;8.644;2023-04-10T05:45:02;101222.78;;;6.75;nan
37694;BME280;23531;50.122;8.644;2023-04-10T05:47:03;101219.22;;;6.66;nan
37694;BME280;23531;50.122;8.644;2023-04-10T05:49:06;101227.59;;;6.71;nan
37694;BME280;23531;50.122;8.644;2023-04-10T05:51:07;101227.09;;;6.68;nan
37694;BME280;23531;50.122;8.644;2023-04-10T05:53:11;101216.72;;;6.56;nan
37694;BME280;23531;50.122;8.644;2023-04-10T05:55:12;101229.25;;;6.56;nan
37694;BME280;23531;50.122;8.644;2023-04-10T05:57:14;101227.94;;;6.60;nan
37694;BME280;23531;50.122;8.644;2023-04-10T05:59:15;101230.44;;;6.53;nan
37694;BME280;23531;50.122;8.644;2023-04-10T06:01:16;101229.38;;;6.46;nan
37694;BME280;23531;50.122;8.644;2023-04-10T06:03:18;101224.38;;;6.43;nan
37694;BME280;23531;50.122;8.644;2023-04-10T06:05:20;101219.03;;;6.43;nan
37694;BME280;23531;50.122;8.644;2023-04-10T06:07:22;101218.22;;;6.51;nan
37694;BME280;23531;50.122;8.644;2023-04-10T06:09:23;101217.22;;;6.52;nan
37694;BME280;23531;50.122;8.644;2023-04-10T06:11:24;101224.56;;;6.50;nan
37694;BME280;23531;50.122;8.644;2023-04-10T06:13:26;101224.25;;;6.53;nan
37694;BME280;23531;50.122;8.644;2023-04-10T06:15:27;101227.75;;;6.62;nan
37694;BME280;23531;50.122;8.644;2023-04-10T06:17:28;101221.78;;;6.76;nan
37694;BME280;23531;50.122;8.644;2023-04-10T06:19:30;101218.25;;;6.91;nan
37694;BME280;23531;50.122;8.644;2023-04-10T06:21:32;101222.63;;;7.09;nan
37694;BME280;23531;50.122;8.644;2023-04-10T06:23:34;101210.88;;;7.26;nan
37694;BME280;23531;50.122;8.644;2023-04-10T06:25:36;101212.69;;;7.50;nan
37694;BME280;23531;50.122;8.644;2023-04-10T06:27:37;101209.50;;;7.54;nan
37694;BME280;23531;50.122;8.644;2023-04-10T06:29:38;101213.13;;;7.70;nan
37694;BME280;23531;50.122;8.644;2023-04-10T06:31:40;101209.06;;;7.90;nan
37694;BME280;23531;50.122;8.644;2023-04-10T06:33:41;101207.00;;;8.00;nan
37694;BME280;23531;50.122;8.644;2023-04-10T06:35:42;101209.94;;;8.13;nan
37694;BME280;23531;50.122;8.644;2023-04-10T06:37:45;101204.75;;;8.20;nan
37694;BME280;23531;50.122;8.644;2023-04-10T06:39:46;101206.41;;;8.21;nan
37694;BME280;23531;50.122;8.644;2023-04-10T06:41:47;101206.19;;;8.30;nan
37694;BME280;23531;50.122;8.644;2023-04-10T06:43:48;101207.16;;;8.37;nan
37694;BME280;23531;50.122;8.644;2023-04-10T06:45:50;101207.16;;;8.37;nan
37694;BME280;23531;50.122;8.644;2023-04-10T06:47:51;101211.00;;;8.43;nan
37694;BME280;23531;50.122;8.644;2023-04-10T06:49:52;101210.41;;;8.56;nan
37694;BME280;23531;50.122;8.644;2023-04-10T06:51:53;101204.34;;;8.62;nan
37694;BME280;23531;50.122;8.644;2023-04-10T06:53:56;101207.16;;;8.68;nan
37694;BME280;23531;50.122;8.644;2023-04-10T06:55:57;101210.88;;;8.82;nan
37694;BME280;23531;50.122;8.644;2023-04-10T06:57:58;101207.59;;;8.95;nan
37694;BME280;23531;50.122;8.644;2023-04-10T07:00:00;101209.94;;;8.98;nan
37694;BME280;23531;50.122;8.644;2023-04-10T07:02:01;101208.31;;;9.12;nan
37694;BME280;23531;50.122;8.644;2023-04-10T07:04:02;101205.63;;;9.12;nan
37694;BME280;23531;50.122;8.644;2023-04-10T07:06:04;101208.22;;;9.20;nan
37694;BME280;23531;50.122;8.644;2023-04-10T07:08:07;101204.00;;;9.40;nan
37694;BME280;23531;50.122;8.644;2023-04-10T07:10:10;101198.00;;;9.53;nan
37694;BME280;23531;50.122;8.644;2023-04-10T07:12:12;101203.19;;;9.83;nan
37694;BME280;23531;50.122;8.644;2023-04-10T07:14:13;101200.84;;;9.95;nan
37694;BME280;23531;50.122;8.644;2023-04-10T07:16:14;101196.69;;;10.07;nan
37694;BME280;23531;50.122;8.644;2023-04-10T07:18:16;101198.53;;;10.22;nan
37694;BME280;23531;50.122;8.644;2023-04-10T07:20:17;101199.16;;;10.38;nan
37694;BME280;23531;50.122;8.644;2023-04-10T07:22:18;101196.50;;;10.60;nan
37694;BME280;23531;50.122;8.644;2023-04-10T07:24:19;101197.00;;;10.70;nan
37694;BME280;23531;50.122;8.644;2023-04-10T07:26:22;101199.69;;;10.91;nan
37694;BME280;23531;50.122;8.644;2023-04-10T07:28:24;101186.66;;;11.16;nan
37694;BME280;23531;50.122;8.644;2023-04-10T07:30:25;101187.25;;;11.39;nan
37694;BME280;23531;50.122;8.644;2023-04-10T07:32:26;101187.00;;;11.69;nan
37694;BME280;23531;50.122;8.644;2023-04-10T07:34:29;101168.06;;;11.90;nan
37694;BME280;23531;50.122;8.644;2023-04-10T07:36:30;101179.81;;;12.17;nan
37694;BME280;23531;50.122;8.644;2023-04-10T07:38:31;101175.38;;;12.83;nan
37694;BME280;23531;50.122;8.644;2023-04-10T07:40:33;101186.00;;;13.31;nan
37694;BME280;23531;50.122;8.644;2023-04-10T07:42:35;101182.38;;;13.83;nan
37694;BME280;23531;50.122;8.644;2023-04-10T07:44:37;101177.69;;;14.55;nan
37694;BME280;23531;50.122;8.644;2023-04-10T07:46:38;101183.81;;;14.75;nan
37694;BME280;23531;50.122;8.644;2023-04-10T07:48:39;101183.28;;;15.16;nan
37694;BME280;23531;50.122;8.644;2023-04-10T07:50:40;101169.69;;;15.22;nan
37694;BME280;23531;50.122;8.644;2023-04-10T07:52:42;101171.28;;;15.48;nan
37694;BME280;23531;50.122;8.644;2023-04-10T07:54:43;101178.56;;;15.73;nan
37694;BME280;23531;50.122;8.644;2023-04-10T07:56:44;101175.81;;;15.79;nan
37694;BME280;23531;50.122;8.644;2023-04-10T07:58:47;101175.69;;;16.04;nan
37694;BME280;23531;50.122;8.644;2023-04-10T08:00:48;101167.38;;;16.36;nan
37694;BME280;23531;50.122;8.644;2023-04-10T08:02:50;101165.50;;;16.36;nan
37694;BME280;23531;50.122;8.644;2023-04-10T08:04:51;101167.53;;;16.52;nan
37694;BME280;23531;50.122;8.644;2023-04-10T08:06:52;101169.41;;;16.70;nan
37694;BME280;23531;50.122;8.644;2023-04-10T08:08:53;101156.44;;;16.84;nan
37694;BME280;23531;50.122;8.644;2023-04-10T08:10:54;101149.59;;;16.81;nan
37694;BME280;23531;50.122;8.644;2023-04-10T08:12:56;101145.78;;;16.82;nan
37694;BME280;23531;50.122;8.644;2023-04-10T08:14:58;101143.34;;;16.81;nan
37694;BME280;23531;50.122;8.644;2023-04-10T08:17:00;101147.72;;;16.52;nan
37694;BME280;23531;50.122;8.644;2023-04-10T08:19:01;101150.06;;;16.18;nan
37694;BME280;23531;50.122;8.644;2023-04-10T08:21:02;101150.31;;;15.98;nan
37694;BME280;23531;50.122;8.644;2023-04-10T08:23:04;101136.75;;;15.98;nan
37694;BME280;23531;50.122;8.644;2023-04-10T08:25:06;101137.09;;;15.90;nan
37694;BME280;23531;50.122;8.644;2023-04-10T08:27:07;101134.81;;;15.69;nan
37694;BME280;23531;50.122;8.644;2023-04-10T08:29:08;101127.25;;;15.53;nan
37694;BME280;23531;50.122;8.644;2023-04-10T08:31:11;101127.31;;;15.46;nan
37694;BME280;23531;50.122;8.644;2023-04-10T08:33:12;101122.09;;;15.26;nan
37694;BME280;23531;50.122;8.644;2023-04-10T08:35:13;101118.50;;;14.89;nan
37694;BME280;23531;50.122;8.644;2023-04-10T08:37:14;101114.47;;;14.74;nan
37694;BME280;23531;50.122;8.644;2023-04-10T08:39:16;101113.13;;;14.58;nan
37694;BME280;23531;50.122;8.644;2023-04-10T08:41:17;101114.97;;;14.64;nan
37694;BME280;23531;50.122;8.644;2023-04-10T08:43:19;101110.03;;;14.55;nan
37694;BME280;23531;50.122;8.644;2023-04-10T08:45:21;101101.81;;;14.43;nan
37694;BME280;23531;50.122;8.644;2023-04-10T08:47:23;101100.66;;;14.19;nan
37694;BME280;23531;50.122;8.644;2023-04-10T08:49:28;101106.72;;;14.14;nan
37694;BME280;23531;50.122;8.644;2023-04-10T08:51:33;101100.34;;;14.02;nan
37694;BME280;23531;50.122;8.644;2023-04-10T08:53:38;101101.69;;;13.87;nan
37694;BME280;23531;50.122;8.644;2023-04-10T08:55:40;101100.03;;;13.79;nan
37694;BME280;23531;50.122;8.644;2023-04-10T08:57:41;101096.53;;;13.72;nan
37694;BME280;23531;50.122;8.644;2023-04-10T08:59:44;101090.75;;;13.55;nan
37694;BME280;23531;50.122;8.644;2023-04-10T09:01:45;101093.75;;;13.40;nan
37694;BME280;23531;50.122;8.644;2023-04-10T09:03:48;101096.41;;;13.47;nan
37694;BME280;23531;50.122;8.644;2023-04-10T09:05:49;101085.78;;;13.59;nan
37694;BME280;23531;50.122;8.644;2023-04-10T09:07:50;101085.72;;;13.72;nan
37694;BME280;23531;50.122;8.644;2023-04-10T09:09:51;101084.44;;;13.81;nan
37694;BME280;23531;50.122;8.644;2023-04-10T09:11:56;101074.50;;;13.75;nan
37694;BME280;23531;50.122;8.644;2023-04-10T09:13:59;101079.69;;;13.70;nan
37694;BME280;23531;50.122;8.644;2023-04-10T09:16:01;101073.03;;;13.72;nan
37694;BME280;23531;50.122;8.644;2023-04-10T09:18:03;101070.56;;;13.71;nan
37694;BME280;23531;50.122;8.644;2023-04-10T09:20:18;101058.47;;;13.73;nan
37694;BME280;23531;50.122;8.644;2023-04-10T09:22:28;101052.66;;;13.76;nan
37694;BME280;23531;50.122;8.644;2023-04-10T09:24:29;101042.19;;;13.87;nan
37694;BME280;23531;50.122;8.644;2023-04-10T09:26:31;101037.97;;;13.97;nan
37694;BME280;23531;50.122;8.644;2023-04-10T09:28:32;101030.50;;;13.93;nan
37694;BME280;23531;50.122;8.644;2023-04-10T09:30:53;101039.03;;;13.90;nan
37694;BME280;23531;50.122;8.644;2023-04-10T09:32:55;101033.88;;;13.88;nan
37694;BME280;23531;50.122;8.644;2023-04-10T09:34:56;101034.03;;;13.93;nan
37694;BME280;23531;50.122;8.644;2023-04-10T09:36:59;101028.81;;;13.98;nan
37694;BME280;23531;50.122;8.644;2023-04-10T09:39:01;101024.38;;;14.10;nan
37694;BME280;23531;50.122;8.644;2023-04-10T09:41:05;101025.38;;;14.16;nan
37694;BME280;23531;50.122;8.644;2023-04-10T09:43:15;101032.88;;;14.14;nan
37694;BME280;23531;50.122;8.644;2023-04-10T09:45:16;101026.81;;;14.18;nan
37694;BME280;23531;50.122;8.644;2023-04-10T09:47:19;101021.34;;;14.25;nan
37694;BME280;23531;50.122;8.644;2023-04-10T09:49:21;101013.22;;;14.25;nan
37694;BME280;23531;50.122;8.644;2023-04-10T09:51:26;101013.63;;;14.29;nan
37694;BME280;23531;50.122;8.644;2023-04-10T09:53:30;101010.25;;;14.40;nan
37694;BME280;23531;50.122;8.644;2023-04-10T09:55:31;101011.00;;;14.47;nan
37694;BME280;23531;50.122;8.644;2023-04-10T09:57:34;101002.44;;;14.50;nan
37694;BME280;23531;50.122;8.644;2023-04-10T09:59:36;101000.97;;;14.54;nan
37694;BME280;23531;50.122;8.644;2023-04-10T10:01:38;100985.47;;;14.61;nan
37694;BME280;23531;50.122;8.644;2023-04-10T10:03:40;100994.00;;;14.65;nan
37694;BME280;23531;50.122;8.644;2023-04-10T10:05:42;100980.00;;;14.68;nan
37694;BME280;23531;50.122;8.644;2023-04-10T10:07:43;100983.09;;;14.71;nan
37694;BME280;23531;50.122;8.644;2023-04-10T10:09:46;100982.66;;;14.74;nan
37694;BME280;23531;50.122;8.644;2023-04-10T10:11:48;100967.78;;;14.83;nan
37694;BME280;23531;50.122;8.644;2023-04-10T10:13:50;100968.38;;;14.85;nan
37694;BME280;23531;50.122;8.644;2023-04-10T10:15:55;100969.88;;;14.81;nan
37694;BME280;23531;50.122;8.644;2023-04-10T10:17:59;100969.13;;;14.74;nan
37694;BME280;23531;50.122;8.644;2023-04-10T10:20:04;100965.72;;;14.79;nan
37694;BME280;23531;50.122;8.644;2023-04-10T10:22:07;100961.13;;;14.79;nan
37694;BME280;23531;50.122;8.644;2023-04-10T10:24:10;100950.78;;;14.76;nan
37694;BME280;23531;50.122;8.644;2023-04-10T10:26:13;100948.22;;;14.81;nan
37694;BME280;23531;50.122;8.644;2023-04-10T10:28:14;100942.19;;;14.79;nan
37694;BME280;23531;50.122;8.644;2023-04-10T10:30:16;100939.25;;;14.81;nan
37694;BME280;23531;50.122;8.644;2023-04-10T10:32:18;100942.78;;;14.81;nan
37694;BME280;23531;50.122;8.644;2023-04-10T10:34:20;100944.44;;;14.82;nan
37694;BME280;23531;50.122;8.644;2023-04-10T10:36:21;100936.94;;;14.84;nan
37694;BME280;23531;50.122;8.644;2023-04-10T10:38:22;100929.78;;;14.90;nan
37694;BME280;23531;50.122;8.644;2023-04-10T10:40:26;100931.59;;;14.96;nan
37694;BME280;23531;50.122;8.644;2023-04-10T10:42:31;100924.31;;;14.97;nan
37694;BME280;23531;50.122;8.644;2023-04-10T10:44:36;100919.50;;;14.99;nan
37694;BME280;23531;50.122;8.644;2023-04-10T10:46:42;100908.06;;;14.97;nan
37694;BME280;23531;50.122;8.644;2023-04-10T10:48:54;100910.31;;;15.00;nan
37694;BME280;23531;50.122;8.644;2023-04-10T10:50:55;100912.78;;;15.01;nan
37694;BME280;23531;50.122;8.644;2023-04-10T10:52:57;100908.56;;;15.05;nan
37694;BME280;23531;50.122;8.644;2023-04-10T10:55:03;100903.66;;;15.14;nan
37694;BME280;23531;50.122;8.644;2023-04-10T10:59:54;100890.38;;;15.24;nan
37694;BME280;23531;50.122;8.644;2023-04-10T11:02:11;100886.41;;;15.26;nan
37694;BME280;23531;50.122;8.644;2023-04-10T11:06:49;100887.50;;;15.37;nan